Terminal Aerodrome Forecast
Issued by NWS Cleveland, OH

Home | Current Version | Previous Version | Text Only | Print | Product List | Glossary On
Versions: 1 2 3 4 5 6 7 8 9 10 11 12 13 14 15 16 17 18 19 20 21 22 23 24 25 26 27
629
FTUS41 KCLE 221733
TAFCLE
TAF
KCLE 221733Z 2218/2324 18012G21KT P6SM BKN130
     FM222100 17010G18KT P6SM VCSH OVC060
     FM230000 17012G20KT P6SM -SHRA OVC025
     FM230700 20010KT P6SM BKN040
     FM231600 23015G27KT 6SM -SHRA OVC025
     FM232000 24016G25KT 5SM -SHRASN OVC015=

USA.gov is the U.S. government's official web portal to all federal, state and local government web resources and services.